Time;durP1;ratioP1;P1;durP2;ratioP2;P2;SDS_P1;SDS_P2;PMS_P1;PMS_P2;Temp;Humidity;BMP_temperature;BMP_pressure;BME280_temperature;BME280_humidity;BME280_pressure;Samples;Min_cycle;Max_cycle;Signal;HPM_P1;HPM_P2
2022/07/23 00:01:53;;;;;;;;;30.75;28.50;;;;;;;;5060612;28;45367;-67
2022/07/23 00:04:18;;;;;;;;;33.25;30.00;;;;;;;;5078479;28;45310;-67
2022/07/23 00:06:43;;;;;;;;;35.50;32.00;;;;;;;;5060073;28;47509;-67
2022/07/23 00:09:09;;;;;;;;;30.25;27.50;;;;;;;;5078395;28;45437;-68
2022/07/23 00:11:34;;;;;;;;;34.75;32.25;;;;;;;;5078437;28;45471;-67
2022/07/23 00:13:59;;;;;;;;;38.25;34.00;;;;;;;;5078531;28;45316;-66
2022/07/23 00:16:24;;;;;;;;;34.00;33.50;;;;;;;;5059796;28;47466;-66
2022/07/23 00:18:49;;;;;;;;;38.75;33.50;;;;;;;;5078006;28;46286;-67
2022/07/23 00:21:15;;;;;;;;;35.25;30.00;;;;;;;;5078444;28;45355;-67
2022/07/23 00:23:40;;;;;;;;;34.25;28.25;;;;;;;;5077828;28;45472;-68
2022/07/23 00:26:07;;;;;;;;;27.75;27.00;;;;;;;;5077920;28;46240;-66
2022/07/23 00:28:32;;;;;;;;;20.50;20.50;;;;;;;;5078059;28;45282;-66
2022/07/23 00:30:57;;;;;;;;;30.25;28.50;;;;;;;;5058882;28;45396;-67
2022/07/23 00:33:23;;;;;;;;;29.50;26.75;;;;;;;;5077973;28;45354;-67
2022/07/23 00:35:48;;;;;;;;;28.50;27.25;;;;;;;;5077748;28;45681;-66
2022/07/23 00:38:13;;;;;;;;;29.00;27.75;;;;;;;;5059498;28;45532;-67
2022/07/23 00:40:39;;;;;;;;;28.50;27.50;;;;;;;;5078021;28;45327;-66
2022/07/23 00:43:04;;;;;;;;;30.50;30.50;;;;;;;;5077925;28;45348;-66
2022/07/23 00:45:30;;;;;;;;;30.25;23.75;;;;;;;;5077502;28;45726;-66
2022/07/23 00:47:56;;;;;;;;;31.75;31.75;;;;;;;;5077714;28;45415;-66
2022/07/23 00:50:21;;;;;;;;;28.25;24.50;;;;;;;;5077620;28;45407;-66
2022/07/23 00:52:46;;;;;;;;;26.25;25.50;;;;;;;;5077890;28;45202;-66
2022/07/23 00:55:12;;;;;;;;;22.25;22.25;;;;;;;;5077440;28;46059;-66
2022/07/23 00:57:38;;;;;;;;;30.00;25.25;;;;;;;;5077411;28;45321;-67
2022/07/23 01:00:04;;;;;;;;;38.00;33.75;;;;;;;;5077535;28;45395;-67
2022/07/23 01:02:29;;;;;;;;;27.50;24.75;;;;;;;;5059201;28;45349;-67
2022/07/23 01:04:54;;;;;;;;;25.75;23.50;;;;;;;;5058981;28;46589;-66
2022/07/23 01:07:19;;;;;;;;;27.00;25.25;;;;;;;;5059081;28;46153;-66
2022/07/23 01:09:45;;;;;;;;;31.25;27.50;;;;;;;;5077413;28;45292;-66
2022/07/23 01:12:10;;;;;;;;;20.00;20.00;;;;;;;;5077242;28;45476;-65
2022/07/23 01:14:36;;;;;;;;;32.00;26.25;;;;;;;;5077187;28;45320;-66
2022/07/23 01:17:01;;;;;;;;;24.75;22.25;;;;;;;;5059176;28;45402;-66
2022/07/23 01:19:26;;;;;;;;;25.25;25.00;;;;;;;;5077292;28;45279;-66
2022/07/23 01:21:53;;;;;;;;;13.75;13.00;;;;;;;;5077325;28;45336;-66
2022/07/23 01:24:21;;;;;;;;;23.00;18.75;;;;;;;;5058496;28;48629;-66
2022/07/23 01:26:47;;;;;;;;;26.00;22.00;;;;;;;;5076928;27;45366;-67
2022/07/23 01:29:12;;;;;;;;;28.50;26.25;;;;;;;;5058748;28;45393;-66
2022/07/23 01:31:38;;;;;;;;;21.75;19.25;;;;;;;;5076557;28;45383;-66
2022/07/23 01:34:04;;;;;;;;;26.50;26.50;;;;;;;;5076849;28;46094;-67
2022/07/23 01:36:29;;;;;;;;;25.50;25.00;;;;;;;;5058750;28;45422;-67
2022/07/23 01:38:55;;;;;;;;;22.00;20.50;;;;;;;;5058409;28;45409;-66
2022/07/23 01:41:20;;;;;;;;;23.25;22.25;;;;;;;;5075808;28;45309;-67
2022/07/23 01:43:45;;;;;;;;;20.25;17.75;;;;;;;;5057955;28;46377;-67
2022/07/23 01:46:11;;;;;;;;;23.75;23.50;;;;;;;;5058437;28;45335;-67
2022/07/23 01:48:36;;;;;;;;;27.00;23.25;;;;;;;;5076829;28;45368;-66
2022/07/23 01:51:01;;;;;;;;;23.00;22.25;;;;;;;;5076661;28;45392;-66
2022/07/23 01:53:26;;;;;;;;;22.75;20.50;;;;;;;;5076600;28;47027;-67
2022/07/23 01:55:51;;;;;;;;;20.50;20.50;;;;;;;;5076665;28;45285;-67
2022/07/23 01:58:17;;;;;;;;;23.75;22.50;;;;;;;;5058315;28;45304;-66
2022/07/23 02:00:42;;;;;;;;;22.50;21.25;;;;;;;;5076617;28;45279;-67
2022/07/23 02:03:07;;;;;;;;;20.50;18.50;;;;;;;;5058230;28;46337;-67
2022/07/23 02:05:32;;;;;;;;;23.00;20.25;;;;;;;;5058306;28;45247;-66
2022/07/23 02:07:58;;;;;;;;;19.25;18.25;;;;;;;;5076467;28;45285;-66
2022/07/23 02:10:23;;;;;;;;;19.50;19.50;;;;;;;;5076416;28;45280;-66
2022/07/23 02:12:49;;;;;;;;;18.75;18.00;;;;;;;;5075934;28;45339;-67
2022/07/23 02:15:14;;;;;;;;;18.75;18.75;;;;;;;;5076275;28;45381;-66
2022/07/23 02:17:39;;;;;;;;;24.25;24.00;;;;;;;;5076566;28;45459;-67
2022/07/23 02:20:06;;;;;;;;;19.25;17.50;;;;;;;;5076357;28;45324;-66
2022/07/23 02:22:32;;;;;;;;;20.75;20.75;;;;;;;;5076351;28;46315;-66
2022/07/23 02:24:57;;;;;;;;;21.00;18.75;;;;;;;;5075759;28;45295;-65
2022/07/23 02:27:23;;;;;;;;;22.50;19.75;;;;;;;;5076250;28;45308;-67
2022/07/23 02:29:48;;;;;;;;;19.25;19.25;;;;;;;;5076130;28;45358;-66
2022/07/23 02:32:13;;;;;;;;;20.50;17.25;;;;;;;;5075954;28;46073;-65
2022/07/23 02:34:38;;;;;;;;;20.00;19.75;;;;;;;;5075948;28;45264;-65
2022/07/23 02:37:03;;;;;;;;;22.50;21.50;;;;;;;;5076048;28;45384;-66
2022/07/23 02:39:29;;;;;;;;;19.75;18.25;;;;;;;;5075799;28;45470;-68
2022/07/23 02:41:54;;;;;;;;;21.50;21.25;;;;;;;;5076005;28;47026;-67
2022/07/23 02:44:19;;;;;;;;;23.00;21.75;;;;;;;;5076026;28;45295;-67
2022/07/23 02:46:44;;;;;;;;;24.00;21.75;;;;;;;;5076051;28;45347;-67
2022/07/23 02:49:09;;;;;;;;;17.75;16.50;;;;;;;;5057682;28;45297;-67
2022/07/23 02:51:35;;;;;;;;;18.75;18.75;;;;;;;;5075524;28;46506;-66
2022/07/23 02:54:00;;;;;;;;;15.25;15.25;;;;;;;;5078029;28;45412;-67
2022/07/23 02:56:25;;;;;;;;;21.25;18.50;;;;;;;;5079591;28;45354;-67
2022/07/23 02:58:50;;;;;;;;;20.00;17.25;;;;;;;;5061104;28;45219;-66
2022/07/23 03:01:15;;;;;;;;;17.25;17.25;;;;;;;;5075079;28;46646;-68
2022/07/23 03:03:41;;;;;;;;;17.75;16.00;;;;;;;;5068903;28;45338;-67
2022/07/23 03:06:06;;;;;;;;;22.25;19.00;;;;;;;;5059145;28;45327;-67
2022/07/23 03:08:31;;;;;;;;;21.75;18.75;;;;;;;;5062163;28;45429;-67
2022/07/23 03:10:56;;;;;;;;;19.00;16.75;;;;;;;;5069660;28;45666;-66
2022/07/23 03:13:22;;;;;;;;;16.75;16.25;;;;;;;;5080442;27;45488;-66
2022/07/23 03:15:47;;;;;;;;;22.25;15.75;;;;;;;;5079368;28;45354;-67
2022/07/23 03:18:12;;;;;;;;;15.75;15.75;;;;;;;;5079120;28;45407;-66
2022/07/23 03:20:37;;;;;;;;;13.50;13.50;;;;;;;;5078936;28;46561;-66
2022/07/23 03:23:02;;;;;;;;;16.75;16.00;;;;;;;;5078666;28;45399;-66
2022/07/23 03:25:28;;;;;;;;;20.00;17.25;;;;;;;;5078763;28;45208;-66
2022/07/23 03:27:53;;;;;;;;;19.25;18.25;;;;;;;;5079133;28;45336;-65
2022/07/23 03:30:18;;;;;;;;;17.50;17.50;;;;;;;;5060540;28;47536;-66
2022/07/23 03:32:44;;;;;;;;;19.00;16.50;;;;;;;;5078513;28;45290;-65
2022/07/23 03:35:09;;;;;;;;;18.50;17.00;;;;;;;;5079024;28;45212;-66
2022/07/23 03:37:34;;;;;;;;;15.50;15.50;;;;;;;;5078735;28;45361;-65
2022/07/23 03:40:00;;;;;;;;;22.75;21.50;;;;;;;;5078619;28;45647;-66
2022/07/23 03:42:25;;;;;;;;;19.75;18.25;;;;;;;;5078766;28;45312;-66
2022/07/23 03:44:50;;;;;;;;;24.75;19.50;;;;;;;;5078831;28;45339;-67
2022/07/23 03:47:17;;;;;;;;;21.25;19.00;;;;;;;;5078855;28;45194;-67
2022/07/23 03:49:42;;;;;;;;;26.00;20.50;;;;;;;;5060500;28;47510;-67
2022/07/23 03:52:08;;;;;;;;;20.25;19.25;;;;;;;;5078482;28;45526;-65
2022/07/23 03:54:33;;;;;;;;;20.00;17.00;;;;;;;;5060221;28;45688;-65
2022/07/23 03:56:58;;;;;;;;;20.25;20.25;;;;;;;;5078315;28;45406;-65
2022/07/23 03:59:23;;;;;;;;;18.00;17.00;;;;;;;;5060000;28;47608;-65
2022/07/23 04:01:49;;;;;;;;;21.00;20.75;;;;;;;;5078515;28;45381;-65
2022/07/23 04:04:14;;;;;;;;;18.75;18.75;;;;;;;;5077946;28;45419;-66
2022/07/23 04:06:39;;;;;;;;;20.00;18.75;;;;;;;;5078086;28;45506;-66
2022/07/23 04:09:04;;;;;;;;;19.00;18.00;;;;;;;;5078043;28;46284;-65
2022/07/23 04:11:30;;;;;;;;;24.00;21.75;;;;;;;;5077874;28;45380;-66
2022/07/23 04:13:55;;;;;;;;;20.75;18.75;;;;;;;;5078200;28;45471;-66
2022/07/23 04:16:20;;;;;;;;;21.00;18.25;;;;;;;;5078316;28;45325;-65
2022/07/23 04:18:45;;;;;;;;;18.00;15.75;;;;;;;;5078177;28;46483;-66
2022/07/23 04:21:11;;;;;;;;;16.25;15.75;;;;;;;;5078018;28;45356;-65
2022/07/23 04:23:36;;;;;;;;;20.25;18.00;;;;;;;;5078097;28;45316;-66
2022/07/23 04:26:01;;;;;;;;;16.75;16.75;;;;;;;;5064013;28;45512;-65
2022/07/23 04:28:27;;;;;;;;;16.50;16.50;;;;;;;;5077589;28;46928;-65
2022/07/23 04:30:52;;;;;;;;;16.25;14.75;;;;;;;;5077649;28;46114;-64
2022/07/23 04:33:17;;;;;;;;;18.00;16.00;;;;;;;;5078437;28;45239;-65
2022/07/23 04:35:42;;;;;;;;;18.00;15.75;;;;;;;;5077832;28;45943;-66
2022/07/23 04:38:07;;;;;;;;;18.75;17.50;;;;;;;;5077840;28;45318;-65
2022/07/23 04:40:33;;;;;;;;;16.25;13.25;;;;;;;;5078132;28;45302;-65
2022/07/23 04:42:58;;;;;;;;;22.25;20.75;;;;;;;;5059896;28;45322;-65
2022/07/23 04:45:24;;;;;;;;;18.25;17.75;;;;;;;;5077959;28;45358;-66
2022/07/23 04:47:49;;;;;;;;;20.00;17.25;;;;;;;;5077403;28;46516;-67
2022/07/23 04:50:18;;;;;;;;;19.50;19.50;;;;;;;;5077397;28;45402;-67
2022/07/23 04:52:44;;;;;;;;;18.50;18.50;;;;;;;;5077769;28;45299;-67
2022/07/23 04:55:09;;;;;;;;;21.50;19.25;;;;;;;;5077552;28;45345;-67
2022/07/23 04:57:34;;;;;;;;;20.50;19.50;;;;;;;;5077683;28;46345;-66
2022/07/23 04:59:59;;;;;;;;;18.75;15.25;;;;;;;;5042445;28;45387;-66
2022/07/23 05:02:24;;;;;;;;;26.75;23.25;;;;;;;;5076336;28;45302;-66
2022/07/23 05:04:49;;;;;;;;;16.75;16.75;;;;;;;;5077504;28;45293;-66
2022/07/23 05:07:15;;;;;;;;;26.75;22.00;;;;;;;;5077370;28;46167;-65
2022/07/23 05:09:40;;;;;;;;;20.25;17.50;;;;;;;;5077310;28;45297;-66
2022/07/23 05:12:05;;;;;;;;;23.00;21.00;;;;;;;;5076021;28;45410;-65
2022/07/23 05:14:30;;;;;;;;;23.50;19.00;;;;;;;;5077194;28;45409;-64
2022/07/23 05:16:56;;;;;;;;;19.25;18.25;;;;;;;;5076750;28;45709;-66
2022/07/23 05:19:21;;;;;;;;;23.75;18.75;;;;;;;;5077134;28;45388;-64
2022/07/23 05:21:48;;;;;;;;;25.25;22.50;;;;;;;;5075940;28;45361;-66
2022/07/23 05:24:13;;;;;;;;;27.00;24.00;;;;;;;;5076846;28;45168;-65
2022/07/23 05:26:38;;;;;;;;;21.75;21.00;;;;;;;;5076483;28;45685;-65
2022/07/23 05:29:03;;;;;;;;;22.00;21.00;;;;;;;;5076800;28;45351;-65
2022/07/23 05:31:28;;;;;;;;;21.25;21.25;;;;;;;;5077008;28;45294;-64
2022/07/23 05:33:54;;;;;;;;;16.00;15.75;;;;;;;;5058799;28;45140;-64
2022/07/23 05:36:19;;;;;;;;;27.25;24.25;;;;;;;;5058491;28;47412;-65
2022/07/23 05:38:44;;;;;;;;;21.25;21.25;;;;;;;;5076771;28;45453;-65
2022/07/23 05:41:09;;;;;;;;;26.50;25.50;;;;;;;;5076791;28;45281;-66
2022/07/23 05:43:34;;;;;;;;;21.50;18.50;;;;;;;;5076718;28;45297;-65
2022/07/23 05:46:00;;;;;;;;;25.00;24.00;;;;;;;;5076645;28;46007;-65
2022/07/23 05:48:25;;;;;;;;;21.00;20.75;;;;;;;;5076455;28;45321;-65
2022/07/23 05:50:50;;;;;;;;;30.00;26.50;;;;;;;;5076622;28;45267;-65
2022/07/23 05:53:16;;;;;;;;;26.25;24.00;;;;;;;;5076964;28;45225;-65
2022/07/23 05:55:41;;;;;;;;;26.50;26.50;;;;;;;;5076375;28;46623;-65
2022/07/23 05:58:06;;;;;;;;;39.25;29.50;;;;;;;;5076192;28;45614;-66
2022/07/23 06:00:31;;;;;;;;;28.75;24.75;;;;;;;;5076718;28;45387;-65
2022/07/23 06:02:56;;;;;;;;;34.50;28.50;;;;;;;;5076583;28;45339;-66
2022/07/23 06:05:22;;;;;;;;;34.75;31.75;;;;;;;;5076357;28;46423;-65
2022/07/23 06:07:47;;;;;;;;;34.00;32.75;;;;;;;;5076532;28;45332;-64
2022/07/23 06:10:13;;;;;;;;;37.75;33.00;;;;;;;;5058225;28;45455;-65
2022/07/23 06:12:38;;;;;;;;;45.50;38.25;;;;;;;;5076197;28;45379;-64
2022/07/23 06:15:03;;;;;;;;;35.50;32.00;;;;;;;;5076412;28;46333;-65
2022/07/23 06:17:29;;;;;;;;;41.50;35.50;;;;;;;;5076279;28;45442;-65
2022/07/23 06:19:54;;;;;;;;;46.75;36.50;;;;;;;;5058298;28;45507;-65
2022/07/23 06:22:20;;;;;;;;;42.50;36.25;;;;;;;;5075808;28;45448;-64
2022/07/23 06:24:45;;;;;;;;;46.25;37.25;;;;;;;;5075941;28;45482;-64
2022/07/23 06:27:10;;;;;;;;;37.00;32.75;;;;;;;;5057526;28;45392;-64
2022/07/23 06:29:35;;;;;;;;;45.50;38.25;;;;;;;;5075573;28;45744;-64
2022/07/23 06:32:00;;;;;;;;;45.25;39.00;;;;;;;;5075413;28;45464;-65
2022/07/23 06:34:26;;;;;;;;;41.00;34.00;;;;;;;;5057527;28;48357;-65
2022/07/23 06:36:51;;;;;;;;;49.00;41.00;;;;;;;;5075746;28;45379;-66
2022/07/23 06:39:16;;;;;;;;;43.75;37.00;;;;;;;;5076197;28;45435;-65
2022/07/23 06:41:42;;;;;;;;;55.00;43.75;;;;;;;;5075966;28;45397;-66
2022/07/23 06:44:07;;;;;;;;;50.25;39.00;;;;;;;;5075692;28;46437;-68
2022/07/23 06:46:32;;;;;;;;;48.25;38.50;;;;;;;;5076277;28;45298;-68
2022/07/23 06:48:58;;;;;;;;;52.25;41.50;;;;;;;;5057401;28;45370;-68
2022/07/23 06:51:23;;;;;;;;;41.25;36.00;;;;;;;;5075197;28;45416;-68
2022/07/23 06:53:48;;;;;;;;;58.00;43.50;;;;;;;;5075815;28;45567;-67
2022/07/23 06:56:13;;;;;;;;;58.75;44.75;;;;;;;;5075571;28;45477;-68
2022/07/23 06:58:38;;;;;;;;;49.50;39.75;;;;;;;;5075719;28;45385;-67
2022/07/23 07:01:04;;;;;;;;;53.75;43.25;;;;;;;;5075700;28;45370;-67
2022/07/23 07:03:29;;;;;;;;;49.75;42.25;;;;;;;;5075463;28;46499;-67
2022/07/23 07:05:57;;;;;;;;;47.25;39.50;;;;;;;;5075421;28;45337;-67
2022/07/23 07:08:22;;;;;;;;;47.75;40.75;;;;;;;;5056786;28;45347;-67
2022/07/23 07:10:47;;;;;;;;;46.75;37.75;;;;;;;;5057237;28;45234;-67
2022/07/23 07:13:12;;;;;;;;;53.25;42.75;;;;;;;;5075111;28;46734;-68
2022/07/23 07:15:37;;;;;;;;;41.25;34.25;;;;;;;;5074703;28;45616;-67
2022/07/23 07:18:03;;;;;;;;;50.50;40.75;;;;;;;;5074575;28;45353;-65
2022/07/23 07:20:28;;;;;;;;;51.00;41.00;;;;;;;;5075361;28;45321;-65
2022/07/23 07:22:53;;;;;;;;;52.50;43.25;;;;;;;;5074719;28;45666;-64
2022/07/23 07:25:18;;;;;;;;;57.25;46.50;;;;;;;;5054606;28;45478;-64
2022/07/23 07:27:44;;;;;;;;;57.00;43.75;;;;;;;;5075416;28;45304;-64
2022/07/23 07:30:09;;;;;;;;;50.00;40.75;;;;;;;;5074524;28;45245;-63
2022/07/23 07:32:36;;;;;;;;;52.75;41.50;;;;;;;;5074956;28;46334;-63
2022/07/23 07:35:01;;;;;;;;;57.25;45.00;;;;;;;;5056887;28;45389;-65
2022/07/23 07:37:27;;;;;;;;;50.25;42.75;;;;;;;;5075250;28;45333;-64
2022/07/23 07:39:52;;;;;;;;;41.75;35.25;;;;;;;;5058124;28;45486;-65
2022/07/23 07:42:17;;;;;;;;;48.50;39.75;;;;;;;;5060074;28;46778;-65
2022/07/23 07:44:42;;;;;;;;;50.00;40.50;;;;;;;;5078666;28;45364;-66
2022/07/23 07:47:07;;;;;;;;;52.25;40.00;;;;;;;;5083489;27;45367;-65
2022/07/23 07:49:33;;;;;;;;;46.50;39.00;;;;;;;;5093957;27;45337;-66
2022/07/23 07:51:58;;;;;;;;;52.25;42.00;;;;;;;;5078317;28;46063;-66
2022/07/23 07:54:23;;;;;;;;;47.25;40.75;;;;;;;;5078475;28;45194;-65
2022/07/23 07:56:48;;;;;;;;;53.00;42.25;;;;;;;;5078292;28;45315;-65
2022/07/23 07:59:14;;;;;;;;;51.25;42.50;;;;;;;;5059689;28;45253;-66
2022/07/23 08:01:39;;;;;;;;;43.00;36.50;;;;;;;;5076926;28;46423;-66
2022/07/23 08:04:05;;;;;;;;;45.75;38.25;;;;;;;;5078312;28;45355;-66
2022/07/23 08:06:30;;;;;;;;;43.75;34.50;;;;;;;;5077641;28;46926;-65
2022/07/23 08:08:55;;;;;;;;;42.25;36.00;;;;;;;;5077515;28;45469;-65
2022/07/23 08:11:20;;;;;;;;;44.00;36.25;;;;;;;;5077923;28;46499;-65
2022/07/23 08:13:45;;;;;;;;;50.50;42.50;;;;;;;;5078002;28;45643;-66
2022/07/23 08:16:11;;;;;;;;;44.00;37.50;;;;;;;;5078188;28;45348;-65
2022/07/23 08:18:36;;;;;;;;;46.50;37.25;;;;;;;;5059624;28;45358;-65
2022/07/23 08:21:01;;;;;;;;;40.50;34.50;;;;;;;;5077120;28;46415;-66
2022/07/23 08:23:27;;;;;;;;;49.75;39.75;;;;;;;;5078096;28;45385;-63
2022/07/23 08:25:52;;;;;;;;;49.25;40.75;;;;;;;;5059551;28;45342;-65
2022/07/23 08:28:17;;;;;;;;;49.50;39.25;;;;;;;;5059932;28;45925;-66
2022/07/23 08:30:43;;;;;;;;;43.75;36.50;;;;;;;;5077572;28;45995;-64
2022/07/23 08:33:13;;;;;;;;;53.00;42.25;;;;;;;;5077601;28;45396;-67
2022/07/23 08:35:40;;;;;;;;;41.00;32.50;;;;;;;;5077615;28;45365;-67
2022/07/23 08:38:06;;;;;;;;;41.75;36.50;;;;;;;;5077528;28;45318;-67
2022/07/23 08:40:33;;;;;;;;;44.00;35.00;;;;;;;;5069301;28;46550;-70
2022/07/23 08:42:59;;;;;;;;;45.75;38.50;;;;;;;;5079411;27;45362;-67
2022/07/23 08:45:25;;;;;;;;;43.25;35.25;;;;;;;;5077522;28;45532;-66
2022/07/23 08:47:51;;;;;;;;;55.75;43.75;;;;;;;;5077512;28;45263;-67
2022/07/23 08:50:17;;;;;;;;;47.50;39.50;;;;;;;;5077022;28;46553;-65
2022/07/23 08:52:42;;;;;;;;;41.50;35.50;;;;;;;;5076681;28;45346;-66
2022/07/23 08:55:08;;;;;;;;;45.75;36.00;;;;;;;;5077733;28;45440;-68
2022/07/23 08:57:33;;;;;;;;;40.25;33.50;;;;;;;;5076335;28;45435;-67
2022/07/23 08:59:58;;;;;;;;;43.50;36.75;;;;;;;;5076253;28;45570;-65
2022/07/23 09:02:24;;;;;;;;;37.25;33.75;;;;;;;;5077480;28;45266;-66
2022/07/23 09:04:49;;;;;;;;;42.25;36.75;;;;;;;;5059226;28;45297;-66
2022/07/23 09:07:14;;;;;;;;;45.75;38.50;;;;;;;;5081701;27;45395;-68
2022/07/23 09:09:40;;;;;;;;;48.00;39.75;;;;;;;;5097401;27;45287;-67
2022/07/23 09:12:09;;;;;;;;;48.25;37.75;;;;;;;;5098013;27;45512;-67
2022/07/23 09:14:37;;;;;;;;;38.25;35.50;;;;;;;;5097989;27;45872;-66
2022/07/23 09:17:13;;;;;;;;;42.25;36.00;;;;;;;;5079229;27;45366;-66
2022/07/23 09:19:39;;;;;;;;;36.50;31.75;;;;;;;;5096675;27;45739;-66
2022/07/23 09:22:21;;;;;;;;;37.50;32.25;;;;;;;;5097291;27;45248;-65
2022/07/23 09:25:04;;;;;;;;;47.50;39.50;;;;;;;;5097653;27;45336;-65
2022/07/23 09:27:45;;;;;;;;;38.75;35.00;;;;;;;;5074292;28;45584;-67
2022/07/23 09:30:10;;;;;;;;;45.50;36.75;;;;;;;;5076417;28;45905;-64
2022/07/23 09:32:35;;;;;;;;;39.50;34.00;;;;;;;;5076057;27;45382;-65
2022/07/23 09:35:00;;;;;;;;;38.00;32.25;;;;;;;;5076422;28;45340;-65
2022/07/23 09:37:26;;;;;;;;;44.00;34.50;;;;;;;;5076453;28;45444;-65
2022/07/23 09:39:51;;;;;;;;;37.75;33.75;;;;;;;;5076535;28;45740;-64
2022/07/23 09:42:19;;;;;;;;;43.25;36.50;;;;;;;;5076830;28;45366;-63
2022/07/23 09:44:45;;;;;;;;;45.50;37.00;;;;;;;;5077138;27;45578;-66
2022/07/23 09:47:10;;;;;;;;;41.00;36.00;;;;;;;;5093958;27;45306;-65
2022/07/23 09:49:36;;;;;;;;;40.00;34.50;;;;;;;;5096357;27;45402;-63
2022/07/23 09:52:02;;;;;;;;;44.50;36.75;;;;;;;;5097309;27;45344;-65
2022/07/23 09:54:31;;;;;;;;;36.50;33.50;;;;;;;;5096845;27;45347;-64
2022/07/23 09:56:57;;;;;;;;;36.50;33.75;;;;;;;;5096748;27;45366;-66
2022/07/23 09:59:25;;;;;;;;;31.25;29.75;;;;;;;;5096760;27;47398;-65
2022/07/23 10:01:52;;;;;;;;;36.25;33.00;;;;;;;;5096764;27;45364;-66
2022/07/23 10:04:18;;;;;;;;;35.25;31.50;;;;;;;;5095949;27;45284;-64
2022/07/23 10:06:43;;;;;;;;;38.00;34.00;;;;;;;;5078460;27;46107;-65
2022/07/23 10:09:11;;;;;;;;;33.25;32.00;;;;;;;;5075932;28;45365;-65
2022/07/23 10:11:37;;;;;;;;;36.00;31.75;;;;;;;;5057992;28;45365;-65
2022/07/23 10:14:04;;;;;;;;;35.25;32.25;;;;;;;;5075756;28;45223;-65
2022/07/23 10:16:29;;;;;;;;;36.50;33.00;;;;;;;;5075707;28;45413;-65
2022/07/23 10:18:54;;;;;;;;;39.00;33.00;;;;;;;;5074548;28;46446;-65
2022/07/23 10:21:38;;;;;;;;;34.00;31.50;;;;;;;;5080312;27;45312;-64
2022/07/23 10:24:09;;;;;;;;;37.50;33.00;;;;;;;;5095580;27;45301;-63
2022/07/23 10:26:35;;;;;;;;;33.50;30.75;;;;;;;;5084167;27;45399;-63
2022/07/23 10:29:12;;;;;;;;;38.50;33.25;;;;;;;;5076069;28;46193;-65
2022/07/23 10:31:50;;;;;;;;;35.75;31.00;;;;;;;;5057657;28;46163;-66
2022/07/23 10:34:25;;;;;;;;;35.75;33.25;;;;;;;;5057670;28;45464;-64
2022/07/23 10:36:53;;;;;;;;;29.50;26.75;;;;;;;;5076043;28;45401;-64
2022/07/23 10:39:24;;;;;;;;;28.50;28.50;;;;;;;;5075857;28;46211;-65
2022/07/23 10:41:50;;;;;;;;;34.50;33.00;;;;;;;;5076186;28;45359;-66
2022/07/23 10:44:17;;;;;;;;;30.25;28.75;;;;;;;;5076141;28;45420;-64
2022/07/23 10:49:37;;;;;;;;;27.25;24.75;;;;;;;;5072894;28;45653;-66
2022/07/23 10:52:22;;;;;;;;;28.50;28.25;;;;;;;;5075908;28;45398;-64
2022/07/23 10:54:52;;;;;;;;;28.00;26.75;;;;;;;;5075631;28;45287;-63
2022/07/23 10:57:24;;;;;;;;;24.50;24.25;;;;;;;;5057553;28;45324;-62
2022/07/23 11:00:05;;;;;;;;;25.75;25.75;;;;;;;;5075549;28;46479;-64
2022/07/23 11:02:31;;;;;;;;;33.25;31.00;;;;;;;;5057550;28;45367;-64
2022/07/23 11:05:16;;;;;;;;;29.00;28.00;;;;;;;;5057725;28;45417;-64
2022/07/23 11:08:00;;;;;;;;;35.00;32.50;;;;;;;;5075858;28;45348;-65
2022/07/23 11:10:51;;;;;;;;;31.25;29.25;;;;;;;;5075464;28;45593;-64
2022/07/23 11:13:29;;;;;;;;;32.25;26.75;;;;;;;;5069462;27;45370;-63
2022/07/23 11:16:04;;;;;;;;;23.00;21.50;;;;;;;;5079046;28;45414;-64
2022/07/23 11:18:46;;;;;;;;;22.75;21.25;;;;;;;;5060987;28;45354;-65
2022/07/23 11:21:29;;;;;;;;;29.25;28.25;;;;;;;;5078962;28;47807;-64
2022/07/23 11:23:57;;;;;;;;;31.25;30.00;;;;;;;;5078699;28;45432;-64
2022/07/23 11:29:24;;;;;;;;;33.00;30.25;;;;;;;;5079073;28;45383;-64
2022/07/23 11:31:56;;;;;;;;;35.50;32.50;;;;;;;;5078668;28;45630;-63
2022/07/23 11:34:27;;;;;;;;;24.50;24.50;;;;;;;;5060312;28;45346;-64
2022/07/23 11:36:53;;;;;;;;;25.50;25.50;;;;;;;;5078739;28;45513;-64
2022/07/23 11:39:19;;;;;;;;;34.50;33.25;;;;;;;;5060253;28;45890;-65
2022/07/23 11:41:44;;;;;;;;;36.00;31.00;;;;;;;;5078598;28;46462;-65
2022/07/23 11:44:30;;;;;;;;;30.75;29.50;;;;;;;;5079082;28;45420;-65
2022/07/23 11:46:57;;;;;;;;;26.50;23.50;;;;;;;;5076014;28;45388;-67
2022/07/23 11:49:22;;;;;;;;;36.75;33.00;;;;;;;;5058041;28;45561;-65
2022/07/23 11:52:01;;;;;;;;;33.75;32.25;;;;;;;;5076760;28;45714;-64
2022/07/23 11:54:26;;;;;;;;;36.00;33.75;;;;;;;;5076796;28;45423;-65
2022/07/23 11:56:55;;;;;;;;;39.00;32.25;;;;;;;;5058169;28;45495;-65
2022/07/23 11:59:21;;;;;;;;;40.25;33.25;;;;;;;;5075872;28;45459;-65
2022/07/23 12:01:59;;;;;;;;;34.00;31.25;;;;;;;;5076821;28;45451;-63
2022/07/23 12:04:36;;;;;;;;;39.75;32.75;;;;;;;;5076265;28;45409;-64
2022/07/23 12:07:01;;;;;;;;;29.25;26.50;;;;;;;;5077084;28;45401;-65
2022/07/23 12:09:27;;;;;;;;;30.25;29.00;;;;;;;;5077237;28;45581;-64
2022/07/23 12:11:59;;;;;;;;;28.00;25.75;;;;;;;;5075983;28;46057;-65
2022/07/23 12:14:24;;;;;;;;;35.25;31.25;;;;;;;;5058464;28;45359;-65
2022/07/23 12:17:10;;;;;;;;;28.25;27.75;;;;;;;;5076026;28;45482;-66
2022/07/23 12:19:35;;;;;;;;;33.25;30.75;;;;;;;;5076115;28;45539;-65
2022/07/23 12:22:00;;;;;;;;;30.00;27.75;;;;;;;;5075731;28;45388;-66
2022/07/23 12:24:25;;;;;;;;;26.75;24.50;;;;;;;;5076122;28;45384;-65
2022/07/23 12:27:09;;;;;;;;;27.00;25.50;;;;;;;;5074871;28;45496;-66
2022/07/23 12:29:35;;;;;;;;;30.75;29.75;;;;;;;;5076319;28;45721;-68
2022/07/23 12:32:01;;;;;;;;;33.00;27.25;;;;;;;;5075633;28;46838;-67
2022/07/23 12:34:26;;;;;;;;;28.25;26.25;;;;;;;;5075882;28;45368;-68
2022/07/23 12:36:51;;;;;;;;;37.00;32.75;;;;;;;;5075895;28;45380;-69
2022/07/23 12:39:29;;;;;;;;;33.25;30.75;;;;;;;;5075486;28;45440;-69
2022/07/23 12:41:56;;;;;;;;;41.00;32.00;;;;;;;;5057904;28;48129;-68
2022/07/23 12:44:21;;;;;;;;;28.50;28.50;;;;;;;;5075709;28;45422;-68
2022/07/23 12:46:49;;;;;;;;;29.75;26.00;;;;;;;;5057987;28;45597;-67
2022/07/23 12:49:24;;;;;;;;;25.75;25.00;;;;;;;;5057437;28;45423;-68
2022/07/23 12:51:50;;;;;;;;;28.75;24.75;;;;;;;;5074874;28;46517;-68
2022/07/23 12:54:15;;;;;;;;;22.25;22.25;;;;;;;;5075532;28;45420;-68
2022/07/23 12:56:44;;;;;;;;;27.00;25.75;;;;;;;;5057185;28;45422;-68
2022/07/23 12:59:10;;;;;;;;;28.00;26.25;;;;;;;;5056815;28;45525;-69
2022/07/23 13:01:40;;;;;;;;;23.50;23.25;;;;;;;;5056181;28;48086;-67
2022/07/23 13:04:13;;;;;;;;;26.75;26.75;;;;;;;;5074862;28;45527;-65
2022/07/23 13:06:42;;;;;;;;;25.50;25.50;;;;;;;;5074802;28;45376;-66
2022/07/23 13:09:09;;;;;;;;;33.25;31.25;;;;;;;;5074300;28;45521;-65
2022/07/23 13:11:35;;;;;;;;;27.00;26.00;;;;;;;;5056879;28;47918;-66
2022/07/23 13:14:01;;;;;;;;;29.50;25.00;;;;;;;;5055553;28;45451;-66
2022/07/23 13:16:27;;;;;;;;;28.50;27.50;;;;;;;;5075350;28;45640;-66
2022/07/23 13:18:52;;;;;;;;;29.25;26.25;;;;;;;;5073547;28;45453;-68
2022/07/23 13:21:17;;;;;;;;;29.50;24.75;;;;;;;;5055960;28;47686;-67
2022/07/23 13:23:43;;;;;;;;;27.50;26.25;;;;;;;;5036510;28;46336;-67
2022/07/23 13:26:08;;;;;;;;;28.00;26.00;;;;;;;;5072583;28;45678;-67
2022/07/23 13:28:33;;;;;;;;;26.50;26.50;;;;;;;;5073351;27;45503;-68
2022/07/23 13:30:58;;;;;;;;;25.50;24.75;;;;;;;;5073380;28;45585;-69
2022/07/23 13:33:24;;;;;;;;;31.50;23.75;;;;;;;;5056435;28;46280;-69
2022/07/23 13:35:50;;;;;;;;;22.00;20.75;;;;;;;;5055383;28;45387;-66
2022/07/23 13:38:16;;;;;;;;;21.25;21.25;;;;;;;;5074315;28;45666;-66
2022/07/23 13:40:43;;;;;;;;;24.00;21.50;;;;;;;;5073131;28;46509;-67
2022/07/23 13:43:09;;;;;;;;;23.00;20.75;;;;;;;;5055921;28;45434;-68
2022/07/23 13:45:35;;;;;;;;;28.25;25.00;;;;;;;;5073937;28;45394;-68
2022/07/23 13:48:00;;;;;;;;;26.50;23.75;;;;;;;;5054872;28;45747;-66
2022/07/23 13:50:25;;;;;;;;;25.75;24.25;;;;;;;;5073148;28;47250;-66
2022/07/23 13:52:51;;;;;;;;;25.75;23.00;;;;;;;;5056445;28;46004;-66
2022/07/23 13:55:16;;;;;;;;;24.00;20.50;;;;;;;;5073849;28;45764;-67
2022/07/23 13:57:41;;;;;;;;;24.25;22.50;;;;;;;;5073350;28;45741;-67
2022/07/23 14:00:09;;;;;;;;;21.75;20.50;;;;;;;;5074066;28;46010;-67
2022/07/23 14:02:35;;;;;;;;;23.00;23.00;;;;;;;;5073942;28;45441;-67
2022/07/23 14:05:00;;;;;;;;;19.75;18.50;;;;;;;;5074040;28;45501;-68
2022/07/23 14:07:26;;;;;;;;;23.00;21.00;;;;;;;;5074248;28;45465;-67
2022/07/23 14:09:51;;;;;;;;;22.25;21.00;;;;;;;;5073584;28;45884;-65
2022/07/23 14:12:16;;;;;;;;;23.00;21.75;;;;;;;;5072527;28;45350;-66
2022/07/23 14:14:43;;;;;;;;;22.75;21.75;;;;;;;;5054965;28;45413;-63
2022/07/23 14:17:08;;;;;;;;;24.75;22.00;;;;;;;;5074254;28;45408;-63
2022/07/23 14:19:34;;;;;;;;;24.50;22.00;;;;;;;;5073643;28;45658;-63